createdAt,value
2022-08-30T00:00:15.511Z,6.50
2022-08-30T00:04:29.378Z,6.70
2022-08-30T00:08:44.126Z,5.32
2022-08-30T00:12:58.943Z,5.25
2022-08-30T00:17:14.632Z,5.37
2022-08-30T00:21:28.506Z,5.13
2022-08-30T00:25:42.637Z,5.20
2022-08-30T00:29:56.712Z,5.13
2022-08-30T00:34:11.878Z,7.35
2022-08-30T00:38:25.644Z,5.32
2022-08-30T00:42:40.495Z,4.80
2022-08-30T00:46:54.296Z,5.13
2022-08-30T00:51:12.465Z,5.38
2022-08-30T00:55:26.597Z,5.95
2022-08-30T00:59:40.990Z,6.53
2022-08-30T01:03:55.062Z,6.40
2022-08-30T01:08:10.360Z,6.53
2022-08-30T01:12:24.236Z,5.90
2022-08-30T01:16:38.987Z,6.60
2022-08-30T01:21:02.712Z,6.78
2022-08-30T01:25:20.695Z,7.00
2022-08-30T01:29:35.810Z,7.70
2022-08-30T01:33:51.045Z,7.65
2022-08-30T01:38:05.361Z,7.05
2022-08-30T01:42:20.518Z,7.80
2022-08-30T01:46:37.634Z,7.97
2022-08-30T01:50:52.019Z,7.90
2022-08-30T01:55:08.024Z,8.47
2022-08-30T01:59:23.968Z,9.15
2022-08-30T02:03:38.267Z,9.93
2022-08-30T02:07:52.186Z,9.20
2022-08-30T02:12:07.400Z,9.63
2022-08-30T02:16:25.399Z,8.93
2022-08-30T02:20:40.083Z,9.50
2022-08-30T02:24:53.824Z,8.63
2022-08-30T02:29:08.001Z,9.20
2022-08-30T02:33:23.154Z,8.52
2022-08-30T02:37:37.567Z,8.83
2022-08-30T02:41:51.366Z,8.60
2022-08-30T02:46:05.355Z,8.73
2022-08-30T02:50:20.660Z,8.63
2022-08-30T02:54:34.543Z,7.82
2022-08-30T02:58:48.381Z,8.63
2022-08-30T03:03:03.982Z,8.68
2022-08-30T03:07:19.979Z,8.33
2022-08-30T03:11:34.721Z,8.23
2022-08-30T03:15:50.435Z,8.38
2022-08-30T03:20:05.070Z,9.13
2022-08-30T03:24:20.208Z,8.05
2022-08-30T03:28:34.166Z,8.85
2022-08-30T03:32:48.753Z,7.80
2022-08-30T03:37:05.343Z,8.60
2022-08-30T03:41:20.627Z,8.90
2022-08-30T03:45:35.378Z,8.93
2022-08-30T03:49:49.376Z,8.70
2022-08-30T03:54:03.152Z,7.90
2022-08-30T03:58:19.148Z,8.25
2022-08-30T04:02:33.230Z,8.23
2022-08-30T04:06:47.131Z,8.25
2022-08-30T04:11:02.467Z,8.50
2022-08-30T04:15:21.592Z,9.40
2022-08-30T04:19:35.376Z,9.30
2022-08-30T04:23:49.222Z,8.77
2022-08-30T04:28:03.609Z,9.45
2022-08-30T04:32:19.466Z,8.90
2022-08-30T04:36:33.538Z,8.65
2022-08-30T04:40:48.807Z,8.70
2022-08-30T04:45:05.556Z,8.63
2022-08-30T04:49:21.691Z,7.72
2022-08-30T04:53:36.289Z,7.88
2022-08-30T04:57:50.589Z,7.20
2022-08-30T05:02:04.787Z,6.63
2022-08-30T05:06:21.222Z,7.00
2022-08-30T05:10:35.262Z,6.20
2022-08-30T05:14:49.166Z,6.80
2022-08-30T05:19:03.646Z,6.30
2022-08-30T05:23:19.106Z,6.00
2022-08-30T05:27:33.121Z,5.87
2022-08-30T05:31:51.496Z,5.97
2022-08-30T05:36:07.384Z,5.93
2022-08-30T05:40:23.496Z,6.33
2022-08-30T05:44:37.490Z,5.80
2022-08-30T05:48:58.706Z,5.90
2022-08-30T05:53:12.560Z,5.90
2022-08-30T05:57:27.857Z,5.57
2022-08-30T06:01:43.753Z,6.38
2022-08-30T06:05:57.621Z,6.00
2022-08-30T06:10:12.454Z,6.03
2022-08-30T06:14:27.958Z,12.38
2022-08-30T06:18:42.066Z,7.03
2022-08-30T06:22:56.118Z,6.50
2022-08-30T06:27:11.866Z,6.22
2022-08-30T06:31:27.827Z,6.45
2022-08-30T06:35:56.788Z,5.93
2022-08-30T06:40:16.774Z,6.70
2022-08-30T06:44:30.716Z,6.93
2022-08-30T06:48:48.289Z,6.60
2022-08-30T06:53:05.957Z,6.27
2022-08-30T06:57:19.879Z,6.82
2022-08-30T07:01:33.844Z,6.32
2022-08-30T07:05:51.206Z,6.10
2022-08-30T07:10:06.016Z,6.47
2022-08-30T07:14:20.057Z,7.00
2022-08-30T07:18:54.557Z,7.40
2022-08-30T07:23:10.268Z,7.40
2022-08-30T07:27:24.050Z,7.20
2022-08-30T07:31:38.146Z,14.15
2022-08-30T07:35:52.073Z,7.13
2022-08-30T07:40:09.184Z,6.97
2022-08-30T07:44:25.120Z,7.53
2022-08-30T07:48:39.354Z,9.43
2022-08-30T07:52:54.068Z,7.55
2022-08-30T07:57:09.335Z,11.07
2022-08-30T08:01:24.428Z,7.45
2022-08-30T08:05:43.245Z,6.13
2022-08-30T08:09:57.023Z,5.88
2022-08-30T08:14:12.335Z,7.00
2022-08-30T08:18:26.268Z,10.73
2022-08-30T08:22:40.385Z,5.85
2022-08-30T08:26:54.911Z,5.80
2022-08-30T08:31:17.507Z,5.70
2022-08-30T08:35:31.542Z,4.97
2022-08-30T08:39:45.802Z,4.80
2022-08-30T08:44:01.747Z,4.63
2022-08-30T08:48:45.564Z,4.00
2022-08-30T08:53:45.883Z,4.38
2022-08-30T08:58:03.110Z,4.03
2022-08-30T09:02:25.243Z,4.27
2022-08-30T09:06:50.153Z,3.95
2022-08-30T09:11:06.832Z,3.40
2022-08-30T09:15:23.847Z,3.70
2022-08-30T09:19:45.408Z,3.75
2022-08-30T09:24:04.859Z,4.35
2022-08-30T09:28:24.331Z,3.80
2022-08-30T09:32:41.669Z,4.20
2022-08-30T09:36:56.143Z,4.13
2022-08-30T09:41:30.114Z,3.90
2022-08-30T09:45:47.177Z,3.70
2022-08-30T09:50:07.503Z,4.93
2022-08-30T09:54:26.683Z,3.70
2022-08-30T09:59:02.115Z,3.63
2022-08-30T10:03:35.706Z,4.03
2022-08-30T10:08:07.290Z,3.90
2022-08-30T10:12:27.521Z,4.00
2022-08-30T10:16:51.731Z,3.97
2022-08-30T10:21:14.466Z,5.05
2022-08-30T10:25:36.222Z,4.30
2022-08-30T10:29:56.786Z,4.00
2022-08-30T10:34:18.843Z,5.35
2022-08-30T10:38:36.079Z,3.97
2022-08-30T10:42:54.173Z,3.87
2022-08-30T10:47:23.349Z,4.00
2022-08-30T10:51:45.657Z,3.95
2022-08-30T10:56:04.200Z,3.78
2022-08-30T11:00:27.488Z,4.03
2022-08-30T11:05:02.561Z,4.13
2022-08-30T11:09:39.784Z,4.03
2022-08-30T11:13:57.249Z,3.70
2022-08-30T11:18:15.137Z,3.50
2022-08-30T11:22:36.834Z,3.47
2022-08-30T11:27:00.498Z,3.37
2022-08-30T11:31:38.526Z,3.90
2022-08-30T11:35:54.890Z,3.33
2022-08-30T11:40:32.220Z,3.33
2022-08-30T11:44:47.354Z,3.57
2022-08-30T11:49:07.079Z,3.90
2022-08-30T11:53:29.689Z,3.70
2022-08-30T11:57:50.035Z,3.53
2022-08-30T12:02:06.499Z,4.32
2022-08-30T12:06:49.460Z,4.30
2022-08-30T12:11:08.985Z,4.60
2022-08-30T12:15:53.720Z,4.70
2022-08-30T12:20:18.609Z,5.03
2022-08-30T12:24:37.104Z,4.72
2022-08-30T12:28:51.752Z,4.80
2022-08-30T12:33:05.909Z,4.80
2022-08-30T12:37:26.317Z,4.60
2022-08-30T12:41:43.702Z,4.60
2022-08-30T12:46:07.280Z,4.78
2022-08-30T12:50:24.103Z,4.50
2022-08-30T12:54:42.315Z,5.00
2022-08-30T12:58:56.218Z,4.55
2022-08-30T13:03:30.692Z,4.70
2022-08-30T13:07:45.422Z,5.10
2022-08-30T13:12:01.721Z,5.20
2022-08-30T13:16:29.539Z,5.47
2022-08-30T13:20:44.010Z,5.03
2022-08-30T13:24:58.813Z,5.20
2022-08-30T13:29:20.068Z,4.97
2022-08-30T13:33:33.984Z,5.07
2022-08-30T13:37:51.532Z,4.50
2022-08-30T13:46:53.794Z,5.00
2022-08-30T13:51:09.243Z,4.88
2022-08-30T13:55:24.758Z,4.87
2022-08-30T13:59:38.819Z,4.38
2022-08-30T14:08:49.213Z,5.33
2022-08-30T14:13:09.037Z,5.50
2022-08-30T14:17:25.603Z,5.30
2022-08-30T14:21:41.228Z,5.10
2022-08-30T14:25:55.813Z,5.10
2022-08-30T14:30:11.673Z,4.53
2022-08-30T14:34:25.549Z,4.68
2022-08-30T14:38:40.950Z,4.73
2022-08-30T14:42:56.776Z,4.43
2022-08-30T14:47:10.621Z,6.43
2022-08-30T14:51:25.034Z,4.23
2022-08-30T14:55:41.570Z,4.95
2022-08-30T14:59:55.523Z,4.13
2022-08-30T15:04:10.764Z,4.60
2022-08-30T15:08:24.636Z,4.57
2022-08-30T15:12:41.947Z,4.40
2022-08-30T15:16:58.295Z,4.82
2022-08-30T15:21:12.654Z,4.70
2022-08-30T15:25:26.706Z,4.60
2022-08-30T15:29:42.273Z,4.28
2022-08-30T15:33:56.637Z,4.03
2022-08-30T15:38:12.428Z,3.78
2022-08-30T15:42:27.906Z,6.35
2022-08-30T15:46:45.206Z,4.60
2022-08-30T15:50:59.343Z,4.43
2022-08-30T15:55:13.439Z,4.70
2022-08-30T15:59:27.747Z,4.13
2022-08-30T16:03:43.406Z,4.13
2022-08-30T16:07:57.332Z,4.10
2022-08-30T16:12:11.437Z,4.22
2022-08-30T16:16:26.148Z,3.67
2022-08-30T16:20:42.014Z,3.90
2022-08-30T16:24:55.832Z,3.90
2022-08-30T16:29:10.717Z,3.80
2022-08-30T16:33:25.566Z,3.53
2022-08-30T16:37:40.836Z,3.80
2022-08-30T16:41:54.791Z,4.05
2022-08-30T16:46:10.931Z,3.33
2022-08-30T16:50:24.799Z,3.42
2022-08-30T16:54:40.648Z,3.70
2022-08-30T16:59:00.795Z,3.60
2022-08-30T17:03:16.146Z,3.40
2022-08-30T17:07:30.928Z,3.60
2022-08-30T17:11:46.469Z,3.50
2022-08-30T17:16:00.609Z,3.22
2022-08-30T17:20:16.588Z,3.58
2022-08-30T17:24:30.499Z,3.25
2022-08-30T17:28:45.850Z,3.00
2022-08-30T17:32:59.836Z,3.30
2022-08-30T17:37:14.574Z,3.22
2022-08-30T17:41:28.544Z,3.40
2022-08-30T17:45:43.731Z,3.15
2022-08-30T17:49:57.944Z,3.65
2022-08-30T17:54:13.822Z,3.80
2022-08-30T17:58:27.900Z,3.70
2022-08-30T18:02:43.384Z,3.70
2022-08-30T18:06:57.701Z,3.88
2022-08-30T18:11:11.824Z,3.73
2022-08-30T18:15:25.654Z,3.90
2022-08-30T18:19:46.127Z,3.58
2022-08-30T18:24:00.455Z,3.90
2022-08-30T18:28:14.278Z,4.47
2022-08-30T18:32:32.815Z,3.88
2022-08-30T18:36:53.786Z,3.87
2022-08-30T18:41:09.676Z,3.90
2022-08-30T18:45:24.153Z,3.90
2022-08-30T18:49:38.591Z,4.07
2022-08-30T18:53:55.439Z,3.67
2022-08-30T18:58:09.550Z,4.00
2022-08-30T19:02:27.580Z,3.88
2022-08-30T19:06:43.920Z,4.20
2022-08-30T19:11:04.785Z,3.80
2022-08-30T19:15:23.603Z,4.28
2022-08-30T19:19:48.876Z,4.30
2022-08-30T19:24:05.190Z,4.18
2022-08-30T19:28:20.521Z,4.25
2022-08-30T19:32:34.439Z,4.13
2022-08-30T19:36:48.235Z,4.40
2022-08-30T19:41:02.977Z,4.38
2022-08-30T19:45:21.771Z,4.13
2022-08-30T19:49:36.827Z,4.50
2022-08-30T19:53:51.279Z,4.50
2022-08-30T19:58:10.395Z,4.57
2022-08-30T20:02:27.074Z,4.23
2022-08-30T20:06:42.501Z,4.35
2022-08-30T20:10:57.088Z,4.18
2022-08-30T20:15:14.622Z,3.83
2022-08-30T20:19:31.716Z,4.03
2022-08-30T20:23:45.759Z,4.30
2022-08-30T20:28:00.380Z,4.03
2022-08-30T20:32:14.402Z,4.30
2022-08-30T20:36:29.765Z,3.88
2022-08-30T20:40:44.523Z,4.05
2022-08-30T20:44:59.188Z,4.17
2022-08-30T20:49:15.438Z,3.80
2022-08-30T20:53:31.474Z,3.83
2022-08-30T20:57:45.690Z,3.97
2022-08-30T21:02:01.117Z,3.70
2022-08-30T21:06:17.523Z,3.90
2022-08-30T21:10:32.857Z,3.78
2022-08-30T21:14:46.733Z,4.00
2022-08-30T21:19:00.781Z,3.28
2022-08-30T21:23:14.749Z,3.70
2022-08-30T21:27:30.051Z,3.67
2022-08-30T21:31:44.005Z,3.40
2022-08-30T21:36:17.248Z,3.92
2022-08-30T21:40:31.194Z,3.60
2022-08-30T21:44:46.421Z,3.30
2022-08-30T21:49:01.951Z,3.80
2022-08-30T21:53:17.169Z,3.65
2022-08-30T21:57:32.958Z,3.73
2022-08-30T22:01:49.706Z,3.30
2022-08-30T22:06:03.713Z,3.70
2022-08-30T22:10:18.111Z,3.80
2022-08-30T22:14:33.185Z,3.50
2022-08-30T22:18:48.780Z,3.63
2022-08-30T22:23:02.605Z,3.65
2022-08-30T22:27:16.952Z,3.60
2022-08-30T22:31:31.146Z,3.60
2022-08-30T22:35:48.618Z,3.63
2022-08-30T22:40:02.499Z,4.00
2022-08-30T22:44:16.712Z,3.97
2022-08-30T22:48:30.572Z,3.53
2022-08-30T22:52:45.941Z,4.37
2022-08-30T22:57:00.109Z,4.38
2022-08-30T23:01:23.522Z,4.28
2022-08-30T23:05:37.501Z,4.15
2022-08-30T23:09:52.637Z,4.43
2022-08-30T23:14:07.779Z,3.90
2022-08-30T23:18:21.870Z,4.28
2022-08-30T23:22:35.630Z,4.37
2022-08-30T23:27:08.641Z,3.97
2022-08-30T23:31:40.316Z,4.20
2022-08-30T23:36:11.466Z,4.50
2022-08-30T23:40:43.162Z,4.30
2022-08-30T23:45:15.917Z,4.13
2022-08-30T23:49:46.914Z,4.45
2022-08-30T23:54:18.419Z,4.10
2022-08-30T23:58:49.877Z,4.13
